sensor_id;sensor_type;location;lat;lon;timestamp;P1;durP1;ratioP1;P2;durP2;ratioP2
1414;SDS011;702;49.466;11.086;2023-04-19T00:02:32;4.27;;;3.77;;
1414;SDS011;702;49.466;11.086;2023-04-19T00:05:00;6.47;;;4.40;;
1414;SDS011;702;49.466;11.086;2023-04-19T00:07:27;5.67;;;4.00;;
1414;SDS011;702;49.466;11.086;2023-04-19T00:09:55;6.43;;;4.37;;
1414;SDS011;702;49.466;11.086;2023-04-19T00:12:22;8.50;;;5.10;;
1414;SDS011;702;49.466;11.086;2023-04-19T00:14:50;5.37;;;4.60;;
1414;SDS011;702;49.466;11.086;2023-04-19T00:17:18;5.67;;;4.70;;
1414;SDS011;702;49.466;11.086;2023-04-19T00:19:46;6.47;;;4.40;;
1414;SDS011;702;49.466;11.086;2023-04-19T00:22:13;5.13;;;4.20;;
1414;SDS011;702;49.466;11.086;2023-04-19T00:24:41;6.87;;;5.50;;
1414;SDS011;702;49.466;11.086;2023-04-19T00:27:08;7.07;;;4.97;;
1414;SDS011;702;49.466;11.086;2023-04-19T00:29:36;6.63;;;5.43;;
1414;SDS011;702;49.466;11.086;2023-04-19T00:32:03;8.10;;;5.30;;
1414;SDS011;702;49.466;11.086;2023-04-19T00:34:34;7.10;;;4.50;;
1414;SDS011;702;49.466;11.086;2023-04-19T00:37:01;7.70;;;5.50;;
1414;SDS011;702;49.466;11.086;2023-04-19T00:39:29;6.57;;;4.23;;
1414;SDS011;702;49.466;11.086;2023-04-19T00:41:56;9.80;;;5.30;;
1414;SDS011;702;49.466;11.086;2023-04-19T00:44:25;9.80;;;5.47;;
1414;SDS011;702;49.466;11.086;2023-04-19T00:46:53;8.10;;;4.77;;
1414;SDS011;702;49.466;11.086;2023-04-19T00:49:22;8.77;;;5.50;;
1414;SDS011;702;49.466;11.086;2023-04-19T00:51:52;11.10;;;7.10;;
1414;SDS011;702;49.466;11.086;2023-04-19T00:54:19;9.77;;;6.33;;
1414;SDS011;702;49.466;11.086;2023-04-19T00:56:47;11.40;;;6.57;;
1414;SDS011;702;49.466;11.086;2023-04-19T00:59:15;18.50;;;9.37;;
1414;SDS011;702;49.466;11.086;2023-04-19T01:01:42;11.10;;;6.90;;
1414;SDS011;702;49.466;11.086;2023-04-19T01:04:09;11.97;;;7.77;;
1414;SDS011;702;49.466;11.086;2023-04-19T01:06:37;14.83;;;7.37;;
1414;SDS011;702;49.466;11.086;2023-04-19T01:09:07;13.00;;;7.43;;
1414;SDS011;702;49.466;11.086;2023-04-19T01:11:35;12.10;;;7.30;;
1414;SDS011;702;49.466;11.086;2023-04-19T01:14:02;13.67;;;8.40;;
1414;SDS011;702;49.466;11.086;2023-04-19T01:16:29;8.50;;;5.67;;
1414;SDS011;702;49.466;11.086;2023-04-19T01:18:57;11.97;;;5.63;;
1414;SDS011;702;49.466;11.086;2023-04-19T01:21:25;7.17;;;4.93;;
1414;SDS011;702;49.466;11.086;2023-04-19T01:23:54;6.33;;;4.90;;
1414;SDS011;702;49.466;11.086;2023-04-19T01:26:23;7.77;;;4.40;;
1414;SDS011;702;49.466;11.086;2023-04-19T01:28:50;6.57;;;4.60;;
1414;SDS011;702;49.466;11.086;2023-04-19T01:31:17;6.27;;;4.50;;
1414;SDS011;702;49.466;11.086;2023-04-19T01:33:45;7.40;;;4.63;;
1414;SDS011;702;49.466;11.086;2023-04-19T01:36:15;10.80;;;5.73;;
1414;SDS011;702;49.466;11.086;2023-04-19T01:38:42;8.20;;;5.90;;
1414;SDS011;702;49.466;11.086;2023-04-19T01:41:13;6.53;;;5.30;;
1414;SDS011;702;49.466;11.086;2023-04-19T01:43:40;8.47;;;6.60;;
1414;SDS011;702;49.466;11.086;2023-04-19T01:46:08;8.00;;;5.63;;
1414;SDS011;702;49.466;11.086;2023-04-19T01:48:35;9.00;;;5.33;;
1414;SDS011;702;49.466;11.086;2023-04-19T01:51:02;7.53;;;4.77;;
1414;SDS011;702;49.466;11.086;2023-04-19T01:53:30;7.67;;;5.30;;
1414;SDS011;702;49.466;11.086;2023-04-19T01:55:57;8.13;;;5.43;;
1414;SDS011;702;49.466;11.086;2023-04-19T01:58:26;9.20;;;6.43;;
1414;SDS011;702;49.466;11.086;2023-04-19T02:00:53;11.23;;;6.77;;
1414;SDS011;702;49.466;11.086;2023-04-19T02:03:20;8.97;;;5.37;;
1414;SDS011;702;49.466;11.086;2023-04-19T02:05:48;9.47;;;6.63;;
1414;SDS011;702;49.466;11.086;2023-04-19T02:08:15;7.30;;;5.90;;
1414;SDS011;702;49.466;11.086;2023-04-19T02:10:42;9.80;;;5.87;;
1414;SDS011;702;49.466;11.086;2023-04-19T02:13:10;9.70;;;6.07;;
1414;SDS011;702;49.466;11.086;2023-04-19T02:15:38;8.60;;;5.40;;
1414;SDS011;702;49.466;11.086;2023-04-19T02:18:06;11.57;;;6.63;;
1414;SDS011;702;49.466;11.086;2023-04-19T02:20:33;11.00;;;5.47;;
1414;SDS011;702;49.466;11.086;2023-04-19T02:23:01;8.47;;;5.50;;
1414;SDS011;702;49.466;11.086;2023-04-19T02:25:28;9.90;;;5.50;;
1414;SDS011;702;49.466;11.086;2023-04-19T02:27:56;10.43;;;7.00;;
1414;SDS011;702;49.466;11.086;2023-04-19T02:30:23;11.10;;;5.60;;
1414;SDS011;702;49.466;11.086;2023-04-19T02:32:52;9.40;;;6.20;;
1414;SDS011;702;49.466;11.086;2023-04-19T02:35:20;8.63;;;5.10;;
1414;SDS011;702;49.466;11.086;2023-04-19T02:37:47;14.60;;;7.73;;
1414;SDS011;702;49.466;11.086;2023-04-19T02:40:14;13.30;;;8.43;;
1414;SDS011;702;49.466;11.086;2023-04-19T02:42:41;14.60;;;7.70;;
1414;SDS011;702;49.466;11.086;2023-04-19T02:45:10;10.67;;;6.43;;
1414;SDS011;702;49.466;11.086;2023-04-19T02:47:37;8.90;;;5.80;;
1414;SDS011;702;49.466;11.086;2023-04-19T02:50:06;8.97;;;5.90;;
1414;SDS011;702;49.466;11.086;2023-04-19T02:52:35;8.47;;;5.03;;
1414;SDS011;702;49.466;11.086;2023-04-19T02:55:02;8.00;;;5.97;;
1414;SDS011;702;49.466;11.086;2023-04-19T02:57:30;9.33;;;5.83;;
1414;SDS011;702;49.466;11.086;2023-04-19T02:59:57;9.80;;;5.47;;
1414;SDS011;702;49.466;11.086;2023-04-19T03:02:25;6.80;;;4.70;;
1414;SDS011;702;49.466;11.086;2023-04-19T03:04:52;10.07;;;5.93;;
1414;SDS011;702;49.466;11.086;2023-04-19T03:07:21;9.87;;;6.60;;
1414;SDS011;702;49.466;11.086;2023-04-19T03:09:48;14.03;;;7.90;;
1414;SDS011;702;49.466;11.086;2023-04-19T03:12:16;13.13;;;6.50;;
1414;SDS011;702;49.466;11.086;2023-04-19T03:14:43;16.60;;;6.90;;
1414;SDS011;702;49.466;11.086;2023-04-19T03:17:10;15.40;;;7.60;;
1414;SDS011;702;49.466;11.086;2023-04-19T03:19:37;9.87;;;6.40;;
1414;SDS011;702;49.466;11.086;2023-04-19T03:22:05;12.73;;;7.43;;
1414;SDS011;702;49.466;11.086;2023-04-19T03:24:34;13.33;;;7.80;;
1414;SDS011;702;49.466;11.086;2023-04-19T03:27:01;11.23;;;7.60;;
1414;SDS011;702;49.466;11.086;2023-04-19T03:29:29;14.80;;;9.40;;
1414;SDS011;702;49.466;11.086;2023-04-19T03:31:57;20.03;;;9.67;;
1414;SDS011;702;49.466;11.086;2023-04-19T03:34:24;11.63;;;6.00;;
1414;SDS011;702;49.466;11.086;2023-04-19T03:36:51;12.33;;;6.73;;
1414;SDS011;702;49.466;11.086;2023-04-19T03:39:18;11.67;;;7.53;;
1414;SDS011;702;49.466;11.086;2023-04-19T03:41:47;11.30;;;5.83;;
1414;SDS011;702;49.466;11.086;2023-04-19T03:44:14;10.80;;;7.30;;
1414;SDS011;702;49.466;11.086;2023-04-19T03:46:41;11.87;;;6.83;;
1414;SDS011;702;49.466;11.086;2023-04-19T03:49:10;11.67;;;6.70;;
1414;SDS011;702;49.466;11.086;2023-04-19T03:51:37;11.13;;;6.63;;
1414;SDS011;702;49.466;11.086;2023-04-19T03:54:05;14.43;;;8.33;;
1414;SDS011;702;49.466;11.086;2023-04-19T03:56:32;10.13;;;6.70;;
1414;SDS011;702;49.466;11.086;2023-04-19T03:59:01;13.10;;;6.97;;
1414;SDS011;702;49.466;11.086;2023-04-19T04:01:28;9.27;;;6.77;;
1414;SDS011;702;49.466;11.086;2023-04-19T04:03:55;11.47;;;7.30;;
1414;SDS011;702;49.466;11.086;2023-04-19T04:06:22;10.43;;;6.60;;
1414;SDS011;702;49.466;11.086;2023-04-19T04:08:50;14.93;;;8.83;;
1414;SDS011;702;49.466;11.086;2023-04-19T04:11:20;10.63;;;7.30;;
1414;SDS011;702;49.466;11.086;2023-04-19T04:13:50;14.03;;;8.03;;
1414;SDS011;702;49.466;11.086;2023-04-19T04:16:19;13.70;;;8.73;;
1414;SDS011;702;49.466;11.086;2023-04-19T04:18:46;11.23;;;7.10;;
1414;SDS011;702;49.466;11.086;2023-04-19T04:21:14;9.33;;;6.97;;
1414;SDS011;702;49.466;11.086;2023-04-19T04:23:41;10.80;;;6.57;;
1414;SDS011;702;49.466;11.086;2023-04-19T04:26:10;10.87;;;6.87;;
1414;SDS011;702;49.466;11.086;2023-04-19T04:28:38;12.50;;;7.90;;
1414;SDS011;702;49.466;11.086;2023-04-19T04:31:05;17.87;;;7.67;;
1414;SDS011;702;49.466;11.086;2023-04-19T04:33:35;9.30;;;6.20;;
1414;SDS011;702;49.466;11.086;2023-04-19T04:36:02;11.10;;;7.10;;
1414;SDS011;702;49.466;11.086;2023-04-19T04:38:31;13.90;;;8.07;;
1414;SDS011;702;49.466;11.086;2023-04-19T04:40:58;12.03;;;7.83;;
1414;SDS011;702;49.466;11.086;2023-04-19T04:43:25;13.70;;;8.50;;
1414;SDS011;702;49.466;11.086;2023-04-19T04:45:53;13.23;;;7.47;;
1414;SDS011;702;49.466;11.086;2023-04-19T04:48:22;10.70;;;6.50;;
1414;SDS011;702;49.466;11.086;2023-04-19T04:50:51;11.30;;;6.90;;
1414;SDS011;702;49.466;11.086;2023-04-19T04:53:18;13.03;;;6.83;;
1414;SDS011;702;49.466;11.086;2023-04-19T04:55:45;7.23;;;5.70;;
1414;SDS011;702;49.466;11.086;2023-04-19T04:58:13;7.40;;;5.60;;
1414;SDS011;702;49.466;11.086;2023-04-19T05:00:42;8.90;;;5.57;;
1414;SDS011;702;49.466;11.086;2023-04-19T05:03:09;10.53;;;5.60;;
1414;SDS011;702;49.466;11.086;2023-04-19T05:05:37;8.37;;;6.03;;
1414;SDS011;702;49.466;11.086;2023-04-19T05:08:05;10.83;;;5.80;;
1414;SDS011;702;49.466;11.086;2023-04-19T05:10:33;9.73;;;6.50;;
1414;SDS011;702;49.466;11.086;2023-04-19T05:13:01;10.60;;;6.43;;
1414;SDS011;702;49.466;11.086;2023-04-19T05:15:28;12.00;;;7.33;;
1414;SDS011;702;49.466;11.086;2023-04-19T05:17:55;11.13;;;7.10;;
1414;SDS011;702;49.466;11.086;2023-04-19T05:20:22;13.60;;;9.00;;
1414;SDS011;702;49.466;11.086;2023-04-19T05:22:55;9.77;;;6.60;;
1414;SDS011;702;49.466;11.086;2023-04-19T05:25:27;12.77;;;7.67;;
1414;SDS011;702;49.466;11.086;2023-04-19T05:27:54;6.77;;;5.10;;
1414;SDS011;702;49.466;11.086;2023-04-19T05:30:22;10.70;;;5.83;;
1414;SDS011;702;49.466;11.086;2023-04-19T05:32:49;8.70;;;6.43;;
1414;SDS011;702;49.466;11.086;2023-04-19T05:35:17;11.17;;;6.50;;
1414;SDS011;702;49.466;11.086;2023-04-19T05:37:45;8.97;;;5.73;;
1414;SDS011;702;49.466;11.086;2023-04-19T05:40:13;8.63;;;6.03;;
1414;SDS011;702;49.466;11.086;2023-04-19T05:42:44;9.97;;;5.33;;
1414;SDS011;702;49.466;11.086;2023-04-19T05:45:11;8.90;;;5.67;;
1414;SDS011;702;49.466;11.086;2023-04-19T05:47:40;9.67;;;6.70;;
1414;SDS011;702;49.466;11.086;2023-04-19T05:50:07;8.70;;;6.10;;
1414;SDS011;702;49.466;11.086;2023-04-19T05:52:35;10.83;;;6.63;;
1414;SDS011;702;49.466;11.086;2023-04-19T05:55:03;11.40;;;6.20;;
1414;SDS011;702;49.466;11.086;2023-04-19T05:57:31;9.17;;;5.83;;
1414;SDS011;702;49.466;11.086;2023-04-19T06:00:02;8.33;;;5.77;;
1414;SDS011;702;49.466;11.086;2023-04-19T06:02:30;8.23;;;6.17;;
1414;SDS011;702;49.466;11.086;2023-04-19T06:04:58;10.57;;;6.50;;
1414;SDS011;702;49.466;11.086;2023-04-19T06:07:28;9.00;;;5.70;;
1414;SDS011;702;49.466;11.086;2023-04-19T06:09:55;14.17;;;8.33;;
1414;SDS011;702;49.466;11.086;2023-04-19T06:12:23;8.83;;;5.37;;
1414;SDS011;702;49.466;11.086;2023-04-19T06:14:50;12.50;;;6.87;;
1414;SDS011;702;49.466;11.086;2023-04-19T06:17:19;9.90;;;7.17;;
1414;SDS011;702;49.466;11.086;2023-04-19T06:19:48;10.53;;;6.17;;
1414;SDS011;702;49.466;11.086;2023-04-19T06:22:16;10.03;;;6.87;;
1414;SDS011;702;49.466;11.086;2023-04-19T06:24:43;10.80;;;6.27;;
1414;SDS011;702;49.466;11.086;2023-04-19T06:27:11;11.27;;;7.40;;
1414;SDS011;702;49.466;11.086;2023-04-19T06:29:38;10.17;;;6.60;;
1414;SDS011;702;49.466;11.086;2023-04-19T06:32:05;10.40;;;6.63;;
1414;SDS011;702;49.466;11.086;2023-04-19T06:34:34;12.33;;;7.47;;
1414;SDS011;702;49.466;11.086;2023-04-19T06:37:01;7.57;;;6.73;;
1414;SDS011;702;49.466;11.086;2023-04-19T06:39:29;12.87;;;6.97;;
1414;SDS011;702;49.466;11.086;2023-04-19T06:41:56;9.10;;;6.57;;
1414;SDS011;702;49.466;11.086;2023-04-19T06:44:23;7.93;;;6.07;;
1414;SDS011;702;49.466;11.086;2023-04-19T06:46:51;10.47;;;7.77;;
1414;SDS011;702;49.466;11.086;2023-04-19T06:49:18;10.83;;;8.27;;
1414;SDS011;702;49.466;11.086;2023-04-19T06:51:48;12.47;;;7.07;;
1414;SDS011;702;49.466;11.086;2023-04-19T06:54:17;11.20;;;7.03;;
1414;SDS011;702;49.466;11.086;2023-04-19T06:56:45;10.83;;;7.67;;
1414;SDS011;702;49.466;11.086;2023-04-19T06:59:14;9.03;;;7.00;;
1414;SDS011;702;49.466;11.086;2023-04-19T07:01:43;10.77;;;6.50;;
1414;SDS011;702;49.466;11.086;2023-04-19T07:04:11;11.63;;;6.70;;
1414;SDS011;702;49.466;11.086;2023-04-19T07:06:41;7.83;;;6.50;;
1414;SDS011;702;49.466;11.086;2023-04-19T07:09:11;10.53;;;7.17;;
1414;SDS011;702;49.466;11.086;2023-04-19T07:11:38;8.27;;;6.07;;
1414;SDS011;702;49.466;11.086;2023-04-19T07:14:05;9.60;;;7.57;;
1414;SDS011;702;49.466;11.086;2023-04-19T07:16:32;11.30;;;7.13;;
1414;SDS011;702;49.466;11.086;2023-04-19T07:18:59;11.17;;;7.90;;
1414;SDS011;702;49.466;11.086;2023-04-19T07:21:27;9.50;;;6.60;;
1414;SDS011;702;49.466;11.086;2023-04-19T07:23:57;9.13;;;5.97;;
1414;SDS011;702;49.466;11.086;2023-04-19T07:26:26;11.30;;;6.77;;
1414;SDS011;702;49.466;11.086;2023-04-19T07:28:53;11.87;;;8.03;;
1414;SDS011;702;49.466;11.086;2023-04-19T07:31:21;10.90;;;7.07;;
1414;SDS011;702;49.466;11.086;2023-04-19T07:33:49;11.13;;;7.47;;
1414;SDS011;702;49.466;11.086;2023-04-19T07:36:17;11.03;;;6.97;;
1414;SDS011;702;49.466;11.086;2023-04-19T07:38:45;10.77;;;6.87;;
1414;SDS011;702;49.466;11.086;2023-04-19T07:41:12;9.43;;;7.27;;
1414;SDS011;702;49.466;11.086;2023-04-19T07:43:40;9.37;;;6.90;;
1414;SDS011;702;49.466;11.086;2023-04-19T07:46:08;8.50;;;6.73;;
1414;SDS011;702;49.466;11.086;2023-04-19T07:48:36;12.90;;;7.53;;
1414;SDS011;702;49.466;11.086;2023-04-19T07:51:07;11.93;;;7.80;;
1414;SDS011;702;49.466;11.086;2023-04-19T07:53:36;12.00;;;7.73;;
1414;SDS011;702;49.466;11.086;2023-04-19T07:56:06;14.73;;;9.17;;
1414;SDS011;702;49.466;11.086;2023-04-19T07:58:33;13.10;;;8.27;;
1414;SDS011;702;49.466;11.086;2023-04-19T08:01:03;10.10;;;7.83;;
1414;SDS011;702;49.466;11.086;2023-04-19T08:03:32;14.47;;;8.77;;
1414;SDS011;702;49.466;11.086;2023-04-19T08:06:00;11.13;;;8.30;;
1414;SDS011;702;49.466;11.086;2023-04-19T08:08:28;14.63;;;11.00;;
1414;SDS011;702;49.466;11.086;2023-04-19T08:10:55;15.00;;;9.17;;
1414;SDS011;702;49.466;11.086;2023-04-19T08:13:23;17.07;;;9.90;;
1414;SDS011;702;49.466;11.086;2023-04-19T08:15:50;14.10;;;9.17;;
1414;SDS011;702;49.466;11.086;2023-04-19T08:18:19;14.30;;;8.90;;
1414;SDS011;702;49.466;11.086;2023-04-19T08:20:46;16.47;;;9.50;;
1414;SDS011;702;49.466;11.086;2023-04-19T08:23:13;12.67;;;8.87;;
1414;SDS011;702;49.466;11.086;2023-04-19T08:25:42;11.70;;;8.33;;
1414;SDS011;702;49.466;11.086;2023-04-19T08:28:09;10.87;;;7.30;;
1414;SDS011;702;49.466;11.086;2023-04-19T08:30:36;10.23;;;7.47;;
1414;SDS011;702;49.466;11.086;2023-04-19T08:33:05;10.93;;;7.53;;
1414;SDS011;702;49.466;11.086;2023-04-19T08:35:36;12.07;;;7.87;;
1414;SDS011;702;49.466;11.086;2023-04-19T08:38:05;12.53;;;8.43;;
1414;SDS011;702;49.466;11.086;2023-04-19T08:40:32;11.93;;;8.03;;
1414;SDS011;702;49.466;11.086;2023-04-19T08:43:03;11.97;;;8.07;;
1414;SDS011;702;49.466;11.086;2023-04-19T08:45:32;17.43;;;9.77;;
1414;SDS011;702;49.466;11.086;2023-04-19T08:48:00;12.50;;;8.03;;
1414;SDS011;702;49.466;11.086;2023-04-19T08:50:28;12.23;;;9.57;;
1414;SDS011;702;49.466;11.086;2023-04-19T08:52:59;15.43;;;10.40;;
1414;SDS011;702;49.466;11.086;2023-04-19T08:55:27;14.73;;;8.90;;
1414;SDS011;702;49.466;11.086;2023-04-19T08:57:55;15.37;;;9.53;;
1414;SDS011;702;49.466;11.086;2023-04-19T09:00:23;11.13;;;7.90;;
1414;SDS011;702;49.466;11.086;2023-04-19T09:02:51;11.57;;;8.80;;
1414;SDS011;702;49.466;11.086;2023-04-19T09:05:20;10.37;;;7.87;;
1414;SDS011;702;49.466;11.086;2023-04-19T09:07:47;12.37;;;8.40;;
1414;SDS011;702;49.466;11.086;2023-04-19T09:10:17;11.30;;;8.40;;
1414;SDS011;702;49.466;11.086;2023-04-19T09:12:58;12.77;;;8.67;;
1414;SDS011;702;49.466;11.086;2023-04-19T09:15:34;9.80;;;7.67;;
1414;SDS011;702;49.466;11.086;2023-04-19T09:18:04;12.23;;;9.27;;
1414;SDS011;702;49.466;11.086;2023-04-19T09:20:36;11.70;;;8.43;;
1414;SDS011;702;49.466;11.086;2023-04-19T09:23:06;12.87;;;7.73;;
1414;SDS011;702;49.466;11.086;2023-04-19T09:25:38;11.60;;;7.57;;
1414;SDS011;702;49.466;11.086;2023-04-19T09:28:09;8.40;;;6.70;;
1414;SDS011;702;49.466;11.086;2023-04-19T09:30:37;9.07;;;6.00;;
1414;SDS011;702;49.466;11.086;2023-04-19T09:33:05;10.70;;;6.40;;
1414;SDS011;702;49.466;11.086;2023-04-19T09:35:39;7.60;;;5.93;;
1414;SDS011;702;49.466;11.086;2023-04-19T09:38:08;11.73;;;7.30;;
1414;SDS011;702;49.466;11.086;2023-04-19T09:40:38;10.30;;;7.60;;
1414;SDS011;702;49.466;11.086;2023-04-19T09:43:06;12.53;;;8.07;;
1414;SDS011;702;49.466;11.086;2023-04-19T09:45:40;7.40;;;5.80;;
1414;SDS011;702;49.466;11.086;2023-04-19T09:48:13;7.50;;;5.60;;
1414;SDS011;702;49.466;11.086;2023-04-19T09:50:49;6.77;;;5.20;;
1414;SDS011;702;49.466;11.086;2023-04-19T09:53:18;10.20;;;6.23;;
1414;SDS011;702;49.466;11.086;2023-04-19T09:55:47;6.20;;;4.80;;
1414;SDS011;702;49.466;11.086;2023-04-19T09:58:15;7.70;;;5.80;;
1414;SDS011;702;49.466;11.086;2023-04-19T10:00:44;6.43;;;4.70;;
1414;SDS011;702;49.466;11.086;2023-04-19T10:03:12;5.53;;;4.93;;
1414;SDS011;702;49.466;11.086;2023-04-19T10:05:41;7.30;;;5.80;;
1414;SDS011;702;49.466;11.086;2023-04-19T10:08:09;9.53;;;5.60;;
1414;SDS011;702;49.466;11.086;2023-04-19T10:10:39;7.97;;;5.33;;
1414;SDS011;702;49.466;11.086;2023-04-19T10:13:10;6.50;;;4.83;;
1414;SDS011;702;49.466;11.086;2023-04-19T10:15:38;7.50;;;5.50;;
1414;SDS011;702;49.466;11.086;2023-04-19T10:18:08;6.03;;;4.50;;
1414;SDS011;702;49.466;11.086;2023-04-19T10:20:37;5.47;;;4.60;;
1414;SDS011;702;49.466;11.086;2023-04-19T10:23:13;8.63;;;4.93;;
1414;SDS011;702;49.466;11.086;2023-04-19T10:25:44;6.53;;;4.70;;
1414;SDS011;702;49.466;11.086;2023-04-19T10:28:15;7.73;;;5.83;;
1414;SDS011;702;49.466;11.086;2023-04-19T10:30:52;6.73;;;5.20;;
1414;SDS011;702;49.466;11.086;2023-04-19T10:33:24;7.87;;;4.77;;
1414;SDS011;702;49.466;11.086;2023-04-19T10:35:54;8.63;;;4.90;;
1414;SDS011;702;49.466;11.086;2023-04-19T10:38:36;7.57;;;4.67;;
1414;SDS011;702;49.466;11.086;2023-04-19T10:41:07;8.27;;;5.07;;
1414;SDS011;702;49.466;11.086;2023-04-19T10:43:40;5.57;;;4.40;;
1414;SDS011;702;49.466;11.086;2023-04-19T10:46:12;5.57;;;4.10;;
1414;SDS011;702;49.466;11.086;2023-04-19T10:48:51;5.70;;;4.10;;
1414;SDS011;702;49.466;11.086;2023-04-19T10:51:25;3.80;;;3.37;;
1414;SDS011;702;49.466;11.086;2023-04-19T10:53:55;5.33;;;3.67;;
1414;SDS011;702;49.466;11.086;2023-04-19T10:59:30;4.80;;;4.10;;
1414;SDS011;702;49.466;11.086;2023-04-19T11:01:58;4.80;;;3.60;;
1414;SDS011;702;49.466;11.086;2023-04-19T11:07:36;5.23;;;3.10;;
1414;SDS011;702;49.466;11.086;2023-04-19T11:10:06;5.30;;;3.70;;
1414;SDS011;702;49.466;11.086;2023-04-19T11:12:35;5.13;;;4.03;;
1414;SDS011;702;49.466;11.086;2023-04-19T11:15:05;5.20;;;3.47;;
1414;SDS011;702;49.466;11.086;2023-04-19T11:17:34;5.40;;;3.90;;
1414;SDS011;702;49.466;11.086;2023-04-19T11:20:03;5.97;;;3.33;;
1414;SDS011;702;49.466;11.086;2023-04-19T11:22:34;3.93;;;3.23;;
1414;SDS011;702;49.466;11.086;2023-04-19T11:25:04;4.10;;;3.57;;
1414;SDS011;702;49.466;11.086;2023-04-19T11:27:33;3.40;;;3.10;;
1414;SDS011;702;49.466;11.086;2023-04-19T11:30:02;3.30;;;2.63;;
1414;SDS011;702;49.466;11.086;2023-04-19T11:32:33;4.53;;;3.30;;
1414;SDS011;702;49.466;11.086;2023-04-19T11:35:05;3.43;;;3.13;;
1414;SDS011;702;49.466;11.086;2023-04-19T11:37:34;5.97;;;3.80;;
1414;SDS011;702;49.466;11.086;2023-04-19T11:40:04;4.20;;;3.03;;
1414;SDS011;702;49.466;11.086;2023-04-19T11:42:32;3.60;;;2.83;;
1414;SDS011;702;49.466;11.086;2023-04-19T11:45:01;3.57;;;3.10;;
1414;SDS011;702;49.466;11.086;2023-04-19T11:47:31;3.20;;;2.90;;
1414;SDS011;702;49.466;11.086;2023-04-19T11:53:09;3.17;;;2.87;;
1414;SDS011;702;49.466;11.086;2023-04-19T11:55:44;4.40;;;3.40;;
1414;SDS011;702;49.466;11.086;2023-04-19T11:58:22;3.10;;;2.70;;
1414;SDS011;702;49.466;11.086;2023-04-19T12:00:53;4.20;;;3.00;;
1414;SDS011;702;49.466;11.086;2023-04-19T12:03:21;4.53;;;4.00;;
1414;SDS011;702;49.466;11.086;2023-04-19T12:05:52;3.57;;;2.77;;
1414;SDS011;702;49.466;11.086;2023-04-19T12:08:31;3.37;;;3.07;;
1414;SDS011;702;49.466;11.086;2023-04-19T12:11:00;2.73;;;2.47;;
1414;SDS011;702;49.466;11.086;2023-04-19T12:13:30;3.53;;;2.60;;
1414;SDS011;702;49.466;11.086;2023-04-19T12:16:00;2.63;;;2.07;;
1414;SDS011;702;49.466;11.086;2023-04-19T12:18:40;2.53;;;2.33;;
1414;SDS011;702;49.466;11.086;2023-04-19T12:21:24;3.40;;;2.60;;
1414;SDS011;702;49.466;11.086;2023-04-19T12:23:53;2.80;;;2.30;;
1414;SDS011;702;49.466;11.086;2023-04-19T12:26:22;2.00;;;1.80;;
1414;SDS011;702;49.466;11.086;2023-04-19T12:28:49;2.07;;;1.80;;
1414;SDS011;702;49.466;11.086;2023-04-19T12:31:18;1.93;;;1.80;;
1414;SDS011;702;49.466;11.086;2023-04-19T12:33:47;2.47;;;1.80;;
1414;SDS011;702;49.466;11.086;2023-04-19T12:36:14;1.70;;;1.60;;
1414;SDS011;702;49.466;11.086;2023-04-19T12:38:41;2.43;;;2.23;;
1414;SDS011;702;49.466;11.086;2023-04-19T12:41:09;1.27;;;1.10;;
1414;SDS011;702;49.466;11.086;2023-04-19T12:43:36;2.07;;;1.70;;
1414;SDS011;702;49.466;11.086;2023-04-19T12:46:04;2.27;;;2.03;;
1414;SDS011;702;49.466;11.086;2023-04-19T12:48:33;1.50;;;1.40;;
1414;SDS011;702;49.466;11.086;2023-04-19T12:51:01;3.20;;;1.40;;
1414;SDS011;702;49.466;11.086;2023-04-19T12:53:30;1.03;;;0.93;;
1414;SDS011;702;49.466;11.086;2023-04-19T12:55:58;1.40;;;1.30;;
1414;SDS011;702;49.466;11.086;2023-04-19T12:58:25;1.30;;;1.20;;
1414;SDS011;702;49.466;11.086;2023-04-19T13:00:53;1.27;;;0.73;;
1414;SDS011;702;49.466;11.086;2023-04-19T13:03:20;1.80;;;0.97;;
1414;SDS011;702;49.466;11.086;2023-04-19T13:05:49;1.40;;;1.10;;
1414;SDS011;702;49.466;11.086;2023-04-19T13:08:16;0.83;;;0.80;;
1414;SDS011;702;49.466;11.086;2023-04-19T13:10:45;1.10;;;1.00;;
1414;SDS011;702;49.466;11.086;2023-04-19T13:13:13;1.63;;;1.10;;
1414;SDS011;702;49.466;11.086;2023-04-19T13:15:41;1.40;;;0.80;;
1414;SDS011;702;49.466;11.086;2023-04-19T13:18:09;1.60;;;1.30;;
1414;SDS011;702;49.466;11.086;2023-04-19T13:20:37;1.43;;;1.33;;
1414;SDS011;702;49.466;11.086;2023-04-19T13:23:06;1.30;;;1.20;;
1414;SDS011;702;49.466;11.086;2023-04-19T13:25:33;0.70;;;0.70;;
1414;SDS011;702;49.466;11.086;2023-04-19T13:28:02;0.97;;;0.87;;
1414;SDS011;702;49.466;11.086;2023-04-19T13:30:29;1.10;;;0.90;;
1414;SDS011;702;49.466;11.086;2023-04-19T13:32:56;1.03;;;0.80;;
1414;SDS011;702;49.466;11.086;2023-04-19T13:35:25;1.00;;;0.80;;
1414;SDS011;702;49.466;11.086;2023-04-19T13:37:53;1.50;;;0.97;;
1414;SDS011;702;49.466;11.086;2023-04-19T13:40:22;1.80;;;1.33;;
1414;SDS011;702;49.466;11.086;2023-04-19T13:42:49;1.60;;;1.40;;
1414;SDS011;702;49.466;11.086;2023-04-19T13:45:18;1.43;;;1.30;;
1414;SDS011;702;49.466;11.086;2023-04-19T13:47:46;2.37;;;1.60;;
1414;SDS011;702;49.466;11.086;2023-04-19T13:50:13;2.00;;;1.60;;
1414;SDS011;702;49.466;11.086;2023-04-19T13:52:41;1.40;;;1.30;;
1414;SDS011;702;49.466;11.086;2023-04-19T13:55:08;2.30;;;1.83;;
1414;SDS011;702;49.466;11.086;2023-04-19T13:57:37;1.30;;;1.10;;
1414;SDS011;702;49.466;11.086;2023-04-19T14:00:05;2.03;;;1.70;;
1414;SDS011;702;49.466;11.086;2023-04-19T14:02:33;2.23;;;1.60;;
1414;SDS011;702;49.466;11.086;2023-04-19T14:05:01;1.30;;;1.20;;
1414;SDS011;702;49.466;11.086;2023-04-19T14:07:29;1.53;;;1.40;;
1414;SDS011;702;49.466;11.086;2023-04-19T14:09:57;1.70;;;1.60;;
1414;SDS011;702;49.466;11.086;2023-04-19T14:12:25;1.70;;;1.50;;
1414;SDS011;702;49.466;11.086;2023-04-19T14:14:53;2.00;;;1.83;;
1414;SDS011;702;49.466;11.086;2023-04-19T14:17:21;1.90;;;1.80;;
1414;SDS011;702;49.466;11.086;2023-04-19T14:19:48;1.73;;;1.40;;
1414;SDS011;702;49.466;11.086;2023-04-19T14:22:16;2.40;;;1.63;;
1414;SDS011;702;49.466;11.086;2023-04-19T14:24:43;2.40;;;1.73;;
1414;SDS011;702;49.466;11.086;2023-04-19T14:27:11;2.30;;;1.77;;
1414;SDS011;702;49.466;11.086;2023-04-19T14:29:38;2.23;;;2.07;;
1414;SDS011;702;49.466;11.086;2023-04-19T14:32:07;2.00;;;1.80;;
1414;SDS011;702;49.466;11.086;2023-04-19T14:34:35;1.67;;;1.57;;
1414;SDS011;702;49.466;11.086;2023-04-19T14:37:02;2.03;;;1.70;;
1414;SDS011;702;49.466;11.086;2023-04-19T14:39:29;1.77;;;1.67;;
1414;SDS011;702;49.466;11.086;2023-04-19T14:41:57;2.10;;;1.90;;
1414;SDS011;702;49.466;11.086;2023-04-19T14:44:24;2.13;;;1.70;;
1414;SDS011;702;49.466;11.086;2023-04-19T14:46:51;2.60;;;1.83;;
1414;SDS011;702;49.466;11.086;2023-04-19T14:49:19;2.37;;;1.83;;
1414;SDS011;702;49.466;11.086;2023-04-19T14:51:46;1.70;;;1.60;;
1414;SDS011;702;49.466;11.086;2023-04-19T14:54:14;1.60;;;1.43;;
1414;SDS011;702;49.466;11.086;2023-04-19T14:56:42;1.70;;;1.30;;
1414;SDS011;702;49.466;11.086;2023-04-19T14:59:09;2.43;;;1.83;;
1414;SDS011;702;49.466;11.086;2023-04-19T15:01:37;1.97;;;1.23;;
1414;SDS011;702;49.466;11.086;2023-04-19T15:04:04;2.00;;;1.47;;
1414;SDS011;702;49.466;11.086;2023-04-19T15:06:33;1.80;;;1.53;;
1414;SDS011;702;49.466;11.086;2023-04-19T15:09:00;1.70;;;1.60;;
1414;SDS011;702;49.466;11.086;2023-04-19T15:11:27;1.33;;;1.23;;
1414;SDS011;702;49.466;11.086;2023-04-19T15:13:55;1.80;;;1.37;;
1414;SDS011;702;49.466;11.086;2023-04-19T15:16:22;1.60;;;1.50;;
1414;SDS011;702;49.466;11.086;2023-04-19T15:18:51;1.73;;;1.50;;
1414;SDS011;702;49.466;11.086;2023-04-19T15:21:19;1.70;;;1.50;;
1414;SDS011;702;49.466;11.086;2023-04-19T15:23:49;1.97;;;1.67;;
1414;SDS011;702;49.466;11.086;2023-04-19T15:26:16;1.80;;;1.30;;
1414;SDS011;702;49.466;11.086;2023-04-19T15:28:44;1.97;;;1.50;;